createdAt,value
2022-12-28T00:04:17.067Z,101141.75
2022-12-28T00:09:21.319Z,101127.06
2022-12-28T00:14:25.197Z,101102.00
2022-12-28T00:19:28.223Z,101092.53
2022-12-28T00:24:32.729Z,101071.75
2022-12-28T00:29:35.690Z,101068.31
2022-12-28T00:34:40.352Z,101054.44
2022-12-28T00:39:45.484Z,101050.13
2022-12-28T00:44:51.043Z,101026.75
2022-12-28T00:49:53.995Z,101009.50
2022-12-28T00:54:58.301Z,100998.28
2022-12-28T01:00:01.220Z,100990.47
2022-12-28T01:05:04.261Z,100992.22
2022-12-28T01:10:09.641Z,100968.88
2022-12-28T01:15:13.540Z,100968.81
2022-12-28T01:20:17.295Z,100956.66
2022-12-28T01:25:21.614Z,100928.94
2022-12-28T01:30:24.545Z,100913.31
2022-12-28T01:35:27.691Z,100899.50
2022-12-28T01:40:32.541Z,100912.38
2022-12-28T01:45:35.615Z,100864.94
2022-12-28T01:50:38.633Z,100882.91
2022-12-28T01:55:45.155Z,100895.72
2022-12-28T02:00:51.233Z,100864.50
2022-12-28T02:05:58.811Z,100862.66
2022-12-28T02:11:05.912Z,100851.38
2022-12-28T02:16:11.004Z,100846.94
2022-12-28T02:21:25.359Z,100859.06
2022-12-28T02:26:48.683Z,100857.50
2022-12-28T02:31:59.721Z,100860.06
2022-12-28T02:37:05.255Z,100856.53
2022-12-28T02:42:10.837Z,100849.56
2022-12-28T02:47:34.790Z,100841.75
2022-12-28T02:52:52.513Z,100826.13
2022-12-28T02:58:16.627Z,100830.31
2022-12-28T03:03:24.917Z,100824.22
2022-12-28T03:08:33.742Z,100825.75
2022-12-28T03:13:45.884Z,100818.81
2022-12-28T03:19:16.522Z,100799.53
2022-12-28T03:24:38.261Z,100798.53
2022-12-28T03:30:01.544Z,100794.34
2022-12-28T03:35:07.501Z,100796.97
2022-12-28T03:40:13.933Z,100796.09
2022-12-28T03:45:46.288Z,100781.34
2022-12-28T03:50:48.339Z,100771.84
2022-12-28T03:55:52.385Z,100781.41
2022-12-28T04:00:56.665Z,100769.31
2022-12-28T04:06:01.382Z,100765.84
2022-12-28T04:11:04.598Z,100748.41
2022-12-28T04:16:11.027Z,100747.50
2022-12-28T04:21:17.061Z,100749.13
2022-12-28T04:26:21.352Z,100740.41
2022-12-28T04:31:27.367Z,100715.09
2022-12-28T04:36:37.274Z,100745.31
2022-12-28T04:41:45.793Z,100714.94
2022-12-28T04:46:48.781Z,100710.47
2022-12-28T04:51:53.225Z,100723.38
2022-12-28T04:56:56.129Z,100698.09
2022-12-28T05:01:59.049Z,100690.19
2022-12-28T05:07:03.529Z,100698.00
2022-12-28T05:12:06.871Z,100684.13
2022-12-28T05:17:09.801Z,100678.16
2022-12-28T05:22:15.669Z,100688.53
2022-12-28T05:27:18.704Z,100690.38
2022-12-28T05:32:21.631Z,100689.44
2022-12-28T05:37:25.962Z,100698.94
2022-12-28T05:42:28.946Z,100703.16
2022-12-28T05:47:31.868Z,100697.84
2022-12-28T05:52:38.593Z,100705.53
2022-12-28T05:57:41.874Z,100699.50
2022-12-28T06:02:47.983Z,100692.50
2022-12-28T06:07:54.346Z,100689.03
2022-12-28T06:12:59.510Z,100688.97
2022-12-28T06:18:02.436Z,100665.47
2022-12-28T06:23:06.859Z,100653.38
2022-12-28T06:28:10.013Z,100676.75
2022-12-28T06:33:12.942Z,100663.56
2022-12-28T06:38:17.308Z,100649.69
2022-12-28T06:43:20.252Z,100656.50
2022-12-28T06:48:23.140Z,100660.31
2022-12-28T06:53:29.342Z,100661.50
2022-12-28T06:58:33.023Z,100653.75
2022-12-28T07:03:36.068Z,100696.19
2022-12-28T07:08:40.499Z,100673.47
2022-12-28T07:13:45.765Z,100670.81
2022-12-28T07:18:49.231Z,100675.00
2022-12-28T07:23:55.121Z,100674.97
2022-12-28T07:29:01.354Z,100687.94
2022-12-28T07:34:08.850Z,100693.97
2022-12-28T07:39:40.431Z,100693.19
2022-12-28T07:44:49.080Z,100700.97
2022-12-28T07:49:53.772Z,100688.94
2022-12-28T07:55:05.199Z,100638.50
2022-12-28T08:00:09.696Z,100641.91
2022-12-28T08:05:20.926Z,100644.47
2022-12-28T08:10:29.103Z,100636.63
2022-12-28T08:15:32.387Z,100647.88
2022-12-28T08:20:37.447Z,100641.66
2022-12-28T08:25:42.081Z,100638.09
2022-12-28T08:30:47.779Z,100618.09
2022-12-28T08:35:50.844Z,100626.75
2022-12-28T08:40:59.706Z,100614.63
2022-12-28T08:46:05.226Z,100622.38
2022-12-28T08:51:09.893Z,100633.53
2022-12-28T08:56:17.286Z,100609.97
2022-12-28T09:01:22.575Z,100603.75
2022-12-28T09:06:28.184Z,100597.59
2022-12-28T09:11:35.889Z,100612.19
2022-12-28T09:16:40.104Z,100586.13
2022-12-28T09:21:44.943Z,100594.66
2022-12-28T09:26:57.064Z,100596.38
2022-12-28T09:32:01.575Z,100591.19
2022-12-28T09:37:08.702Z,100592.75
2022-12-28T09:42:16.751Z,100602.22
2022-12-28T09:47:25.401Z,100584.88
2022-12-28T09:52:30.790Z,100605.41
2022-12-28T09:57:39.412Z,100607.19
2022-12-28T10:03:11.988Z,100620.13
2022-12-28T10:08:17.891Z,100626.13
2022-12-28T10:19:18.459Z,100616.47
2022-12-28T10:24:32.970Z,100614.72
2022-12-28T10:29:37.719Z,100624.25
2022-12-28T10:34:56.045Z,100613.78
2022-12-28T10:40:00.744Z,100620.13
2022-12-28T10:45:08.144Z,100611.06
2022-12-28T10:50:43.325Z,100599.16
2022-12-28T10:55:50.185Z,100573.38
2022-12-28T11:00:59.189Z,100569.13
2022-12-28T11:06:13.359Z,100551.88
2022-12-28T11:11:21.799Z,100541.59
2022-12-28T11:16:28.244Z,100518.34
2022-12-28T11:21:32.466Z,100525.38
2022-12-28T11:26:37.708Z,100504.66
2022-12-28T11:31:46.484Z,100498.44
2022-12-28T11:36:50.830Z,100497.63
2022-12-28T11:42:19.446Z,100490.69
2022-12-28T11:47:33.092Z,100495.94
2022-12-28T11:52:46.865Z,100474.34
2022-12-28T11:57:53.016Z,100477.84
2022-12-28T12:08:44.694Z,100486.59
2022-12-28T12:13:51.628Z,100470.13
2022-12-28T12:18:59.991Z,100479.75
2022-12-28T12:24:07.031Z,100467.72
2022-12-28T12:29:17.657Z,100454.91
2022-12-28T12:34:27.823Z,100449.75
2022-12-28T12:39:45.210Z,100432.41
2022-12-28T12:45:03.601Z,100424.72
2022-12-28T12:50:24.278Z,100426.38
2022-12-28T12:55:41.742Z,100423.69
2022-12-28T13:00:55.355Z,100414.94
2022-12-28T13:06:05.772Z,100381.81
2022-12-28T13:11:12.534Z,100373.78
2022-12-28T13:16:19.224Z,100345.88
2022-12-28T13:26:51.881Z,100336.81
2022-12-28T13:31:55.317Z,100326.28
2022-12-28T13:37:01.812Z,100315.75
2022-12-28T13:42:06.585Z,100308.69
2022-12-28T13:47:15.181Z,100273.81
2022-12-28T13:52:27.745Z,100272.00
2022-12-28T13:57:47.110Z,100271.25
2022-12-28T14:02:57.556Z,100264.28
2022-12-28T14:08:02.633Z,100264.25
2022-12-28T14:13:06.149Z,100238.06
2022-12-28T14:18:09.426Z,100240.66
2022-12-28T14:23:26.980Z,100219.97
2022-12-28T14:28:37.078Z,100198.50
2022-12-28T14:33:50.239Z,100200.13
2022-12-28T14:39:01.129Z,100181.38
2022-12-28T14:44:14.939Z,100175.16
2022-12-28T14:49:34.527Z,100174.56
2022-12-28T14:54:46.951Z,100157.53
2022-12-28T14:59:55.593Z,100154.09
2022-12-28T15:05:00.774Z,100131.56
2022-12-28T15:10:06.442Z,100116.03
2022-12-28T15:15:13.341Z,100122.16
2022-12-28T15:20:17.681Z,100112.72
2022-12-28T15:25:26.556Z,100117.16
2022-12-28T15:30:29.954Z,100095.53
2022-12-28T15:35:34.132Z,100100.09
2022-12-28T15:40:42.463Z,100080.16
2022-12-28T15:51:11.976Z,100043.78
2022-12-28T15:56:22.929Z,100026.56
2022-12-28T16:01:27.393Z,100012.75
2022-12-28T16:06:31.857Z,100005.91
2022-12-28T16:11:36.232Z,100001.47
2022-12-28T16:16:43.420Z,99985.13
2022-12-28T16:21:46.532Z,99969.53
2022-12-28T16:26:54.181Z,99966.13
2022-12-28T16:31:59.833Z,99956.69
2022-12-28T16:37:03.057Z,99959.31
2022-12-28T16:42:08.596Z,99946.31
2022-12-28T16:47:11.776Z,99945.53
2022-12-28T16:52:14.849Z,99935.19
2022-12-28T16:57:19.250Z,99930.00
2022-12-28T17:02:23.136Z,99911.00
2022-12-28T17:07:26.279Z,99907.69
2022-12-28T17:12:31.221Z,99902.44
2022-12-28T17:17:34.308Z,99902.38
2022-12-28T17:22:38.799Z,99876.50
2022-12-28T17:27:43.193Z,99862.63
2022-12-28T17:32:46.159Z,99836.66
2022-12-28T17:37:49.225Z,99839.09
2022-12-28T17:42:53.651Z,99835.72
2022-12-28T17:47:56.766Z,99822.69
2022-12-28T17:53:00.291Z,99822.56
2022-12-28T17:58:04.870Z,99829.38
2022-12-28T18:03:07.876Z,99824.94
2022-12-28T18:08:10.957Z,99801.56
2022-12-28T18:13:15.864Z,99804.22
2022-12-28T18:18:19.219Z,99808.25
2022-12-28T18:23:22.205Z,99812.47
2022-12-28T18:28:26.515Z,99810.38
2022-12-28T18:33:29.605Z,99782.72
2022-12-28T18:38:33.916Z,99786.66
2022-12-28T18:43:38.811Z,99777.78
2022-12-28T18:48:42.427Z,99763.03
2022-12-28T18:53:48.705Z,99767.22
2022-12-28T18:58:54.487Z,99765.41
2022-12-28T19:03:59.007Z,99747.97
2022-12-28T19:09:02.520Z,99755.78
2022-12-28T19:14:08.660Z,99748.88
2022-12-28T19:19:13.675Z,99759.09
2022-12-28T19:24:18.007Z,99773.81
2022-12-28T19:29:22.373Z,99780.78
2022-12-28T19:34:25.357Z,99786.69
2022-12-28T19:39:31.181Z,99778.69
2022-12-28T19:44:35.744Z,99798.59
2022-12-28T19:49:38.751Z,99763.78
2022-12-28T19:54:41.842Z,99749.56
2022-12-28T19:59:46.233Z,99731.94
2022-12-28T20:04:49.307Z,99708.09
2022-12-28T20:09:52.323Z,99669.53
2022-12-28T20:14:56.650Z,99641.59
2022-12-28T20:19:59.623Z,99640.25
2022-12-28T20:25:02.589Z,99630.63
2022-12-28T20:30:08.132Z,99646.25
2022-12-28T20:35:12.191Z,99614.84
2022-12-28T20:40:15.364Z,99628.63
2022-12-28T20:45:21.705Z,99627.59
2022-12-28T20:50:24.741Z,99575.53
2022-12-28T20:55:27.712Z,99599.41
2022-12-28T21:00:32.318Z,99602.72
2022-12-28T21:05:35.311Z,99602.31
2022-12-28T21:10:40.908Z,99603.03
2022-12-28T21:15:45.413Z,99604.72
2022-12-28T21:20:48.847Z,99594.72
2022-12-28T21:25:51.903Z,99585.47
2022-12-28T21:30:56.750Z,99597.44
2022-12-28T21:36:00.625Z,99623.28
2022-12-28T21:41:05.444Z,99620.72
2022-12-28T21:46:12.268Z,99627.53
2022-12-28T21:51:30.567Z,99628.25
2022-12-28T21:56:35.053Z,99622.97
2022-12-28T22:01:58.108Z,99628.19
2022-12-28T22:07:01.433Z,99618.25
2022-12-28T22:12:21.972Z,99612.88
2022-12-28T22:17:26.470Z,99590.94
2022-12-28T22:22:29.451Z,99592.78
2022-12-28T22:27:32.424Z,99581.22
2022-12-28T22:32:36.747Z,99576.75
2022-12-28T22:37:40.988Z,99593.97
2022-12-28T22:42:44.654Z,99587.63
2022-12-28T22:47:49.610Z,99586.81
2022-12-28T22:52:53.610Z,99567.50
2022-12-28T22:57:56.651Z,99548.81
2022-12-28T23:03:01.069Z,99544.25
2022-12-28T23:08:04.203Z,99558.78
2022-12-28T23:13:07.135Z,99526.47
2022-12-28T23:18:25.271Z,99522.88
2022-12-28T23:23:46.202Z,99523.56
2022-12-28T23:28:49.163Z,99524.75
2022-12-28T23:33:53.553Z,99524.81
2022-12-28T23:38:57.053Z,99512.34
2022-12-28T23:43:59.973Z,99517.97
2022-12-28T23:49:04.273Z,99504.72
2022-12-28T23:54:07.335Z,99489.13
2022-12-28T23:59:10.521Z,99495.63
